THY6390 KLAX-KDEN
Flight info
| Callsign | THY6390 |
|---|---|
| Flight time | 1h 41m |
| Altitude | 35000 |
| Route | ORCKA5 LAS J146 DICEE BUMMP SSKII4 |
| Aircraft | B77L/H-SDE1E2E3FGHIJ2J3J4J5M1RWXY/LB1D1 |
Departure
| Time | 2026-04-26 15:17 |
|---|---|
| Airport | Los Angeles International Airport (KLAX) |
Arrival
| Time | 2026-04-26 16:59 |
|---|---|
| Airport | Denver International Airport (KDEN) |
| Time | Latitude | Longitude | Altitude | Speed | Heading |
|---|---|---|---|---|---|
| 2026-04-26 14:59 | 33.93466 | -118.38212 | 125 ft | 0 kts | 225° |
| 2026-04-26 15:07 | 33.93471 | -118.38206 | 125 ft | 2 kts | 236° |
| 2026-04-26 15:08 | 33.93476 | -118.38187 | 126 ft | 2 kts | 270° |
| 2026-04-26 15:08 | 33.93473 | -118.38168 | 125 ft | 2 kts | 295° |
| 2026-04-26 15:08 | 33.93465 | -118.38151 | 125 ft | 2 kts | 311° |
| 2026-04-26 15:08 | 33.93453 | -118.38137 | 126 ft | 2 kts | 325° |
| 2026-04-26 15:09 | 33.93441 | -118.38129 | 126 ft | 1 kts | 343° |
| 2026-04-26 15:09 | 33.93437 | -118.38127 | 126 ft | 0 kts | 352° |
| 2026-04-26 15:10 | 33.93436 | -118.38127 | 125 ft | 0 kts | 357° |
| 2026-04-26 15:13 | 33.93447 | -118.38127 | 125 ft | 3 kts | 357° |
| 2026-04-26 15:13 | 33.93480 | -118.38129 | 127 ft | 6 kts | 358° |
| 2026-04-26 15:14 | 33.93535 | -118.38128 | 128 ft | 9 kts | 0° |
| 2026-04-26 15:14 | 33.93605 | -118.38137 | 126 ft | 6 kts | 330° |
| 2026-04-26 15:14 | 33.93620 | -118.38192 | 125 ft | 8 kts | 269° |
| 2026-04-26 15:14 | 33.93626 | -118.38266 | 126 ft | 10 kts | 310° |
| 2026-04-26 15:15 | 33.93700 | -118.38285 | 125 ft | 12 kts | 356° |
| 2026-04-26 15:15 | 33.93791 | -118.38297 | 127 ft | 14 kts | 353° |
| 2026-04-26 15:15 | 33.93886 | -118.38312 | 127 ft | 14 kts | 352° |
| 2026-04-26 15:15 | 33.93948 | -118.38358 | 126 ft | 11 kts | 283° |
| 2026-04-26 15:16 | 33.93946 | -118.38400 | 128 ft | 0 kts | 263° |
| 2026-04-26 15:16 | 33.93946 | -118.38401 | 128 ft | 2 kts | 263° |
| 2026-04-26 15:16 | 33.93927 | -118.38583 | 128 ft | 51 kts | 262° |
| 2026-04-26 15:17 | 33.93856 | -118.39284 | 128 ft | 117 kts | 263° |
| 2026-04-26 15:17 | 33.93776 | -118.40052 | 130 ft | 155 kts | 263° |
| 2026-04-26 15:17 | 33.93588 | -118.41934 | 652 ft | 170 kts | 261° |
| 2026-04-26 15:17 | 33.93424 | -118.43367 | 1311 ft | 175 kts | 263° |
| 2026-04-26 15:18 | 33.93275 | -118.44848 | 1917 ft | 182 kts | 263° |
| 2026-04-26 15:18 | 33.93083 | -118.46421 | 2267 ft | 203 kts | 256° |
| 2026-04-26 15:18 | 33.92566 | -118.48110 | 2619 ft | 227 kts | 250° |
| 2026-04-26 15:18 | 33.91965 | -118.49962 | 3199 ft | 241 kts | 250° |
| 2026-04-26 15:19 | 33.91374 | -118.51808 | 4231 ft | 237 kts | 251° |
| 2026-04-26 15:19 | 33.90786 | -118.53700 | 4963 ft | 245 kts | 253° |
| 2026-04-26 15:19 | 33.90411 | -118.54991 | 5441 ft | 249 kts | 253° |
| 2026-04-26 15:19 | 33.89639 | -118.57644 | 6557 ft | 252 kts | 253° |
| 2026-04-26 15:20 | 33.89244 | -118.59018 | 7082 ft | 255 kts | 253° |
| 2026-04-26 15:20 | 33.88658 | -118.61071 | 7856 ft | 258 kts | 254° |
| 2026-04-26 15:20 | 33.88075 | -118.63115 | 8617 ft | 260 kts | 251° |
| 2026-04-26 15:20 | 33.87004 | -118.64953 | 9216 ft | 276 kts | 221° |
| 2026-04-26 15:21 | 33.85248 | -118.65977 | 9938 ft | 289 kts | 198° |
| 2026-04-26 15:21 | 33.83200 | -118.66149 | 10512 ft | 307 kts | 178° |
| 2026-04-26 15:21 | 33.81039 | -118.65378 | 10709 ft | 341 kts | 155° |
| 2026-04-26 15:21 | 33.79075 | -118.63611 | 10906 ft | 370 kts | 135° |
| 2026-04-26 15:22 | 33.77576 | -118.60983 | 11338 ft | 390 kts | 115° |
| 2026-04-26 15:22 | 33.76851 | -118.57821 | 11988 ft | 399 kts | 92° |
| 2026-04-26 15:22 | 33.77227 | -118.54515 | 12847 ft | 400 kts | 66° |
| 2026-04-26 15:22 | 33.78670 | -118.51657 | 13752 ft | 396 kts | 42° |
| 2026-04-26 15:23 | 33.80888 | -118.49763 | 14514 ft | 389 kts | 18° |
| 2026-04-26 15:23 | 33.83475 | -118.48975 | 15168 ft | 383 kts | 5° |
| 2026-04-26 15:23 | 33.86101 | -118.48156 | 15594 ft | 399 kts | 16° |
| 2026-04-26 15:23 | 33.88668 | -118.46762 | 16358 ft | 409 kts | 22° |
| 2026-04-26 15:24 | 33.91157 | -118.45037 | 17177 ft | 418 kts | 31° |
| 2026-04-26 15:24 | 33.93404 | -118.42705 | 17939 ft | 430 kts | 43° |
| 2026-04-26 15:24 | 33.95332 | -118.39907 | 18617 ft | 440 kts | 52° |
| 2026-04-26 15:24 | 33.97085 | -118.36720 | 19042 ft | 445 kts | 54° |
| 2026-04-26 15:25 | 33.98796 | -118.33601 | 18998 ft | 447 kts | 53° |
| 2026-04-26 15:25 | 33.99947 | -118.31542 | 19001 ft | 446 kts | 53° |
| 2026-04-26 15:25 | 34.02290 | -118.27403 | 19236 ft | 449 kts | 53° |
| 2026-04-26 15:25 | 34.04107 | -118.24205 | 20000 ft | 451 kts | 53° |
| 2026-04-26 15:26 | 34.05861 | -118.21114 | 20794 ft | 452 kts | 53° |
| 2026-04-26 15:26 | 34.07739 | -118.17799 | 21473 ft | 457 kts | 53° |
| 2026-04-26 15:26 | 34.09543 | -118.14610 | 22069 ft | 463 kts | 53° |
| 2026-04-26 15:26 | 34.11371 | -118.11376 | 22708 ft | 468 kts | 53° |
| 2026-04-26 15:27 | 34.13222 | -118.08096 | 23365 ft | 472 kts | 53° |
| 2026-04-26 15:27 | 34.15150 | -118.04677 | 23952 ft | 477 kts | 53° |
| 2026-04-26 15:27 | 34.17024 | -118.01352 | 24457 ft | 482 kts | 53° |
| 2026-04-26 15:27 | 34.18919 | -117.97983 | 24949 ft | 487 kts | 53° |
| 2026-04-26 15:28 | 34.20833 | -117.94578 | 25453 ft | 491 kts | 53° |
| 2026-04-26 15:28 | 34.22761 | -117.91143 | 25947 ft | 496 kts | 53° |
| 2026-04-26 15:28 | 34.24707 | -117.87676 | 26455 ft | 500 kts | 53° |
| 2026-04-26 15:28 | 34.26668 | -117.84177 | 26928 ft | 505 kts | 54° |
| 2026-04-26 15:29 | 34.27974 | -117.81845 | 27249 ft | 508 kts | 54° |
| 2026-04-26 15:29 | 34.30664 | -117.77036 | 27880 ft | 514 kts | 54° |
| 2026-04-26 15:29 | 34.34708 | -117.69802 | 28809 ft | 522 kts | 54° |
| 2026-04-26 15:30 | 34.38882 | -117.62588 | 29618 ft | 530 kts | 51° |
| 2026-04-26 15:30 | 34.41067 | -117.58972 | 30017 ft | 533 kts | 51° |
| 2026-04-26 15:30 | 34.42553 | -117.56526 | 30273 ft | 534 kts | 51° |
| 2026-04-26 15:31 | 34.44721 | -117.52947 | 30799 ft | 532 kts | 51° |
| 2026-04-26 15:31 | 34.49037 | -117.45752 | 32019 ft | 527 kts | 51° |
| 2026-04-26 15:31 | 34.51194 | -117.42132 | 32303 ft | 531 kts | 51° |
| 2026-04-26 15:32 | 34.54798 | -117.36058 | 32907 ft | 534 kts | 51° |
| 2026-04-26 15:32 | 34.57701 | -117.31153 | 33475 ft | 534 kts | 51° |
| 2026-04-26 15:32 | 34.59875 | -117.27475 | 33857 ft | 535 kts | 51° |
| 2026-04-26 15:33 | 34.62047 | -117.23799 | 34157 ft | 537 kts | 51° |
| 2026-04-26 15:33 | 34.64224 | -117.20113 | 34463 ft | 537 kts | 51° |
| 2026-04-26 15:33 | 34.66402 | -117.16421 | 34705 ft | 538 kts | 52° |
| 2026-04-26 15:33 | 34.68596 | -117.12702 | 34808 ft | 544 kts | 52° |
| 2026-04-26 15:34 | 34.73010 | -117.05201 | 34859 ft | 545 kts | 52° |
| 2026-04-26 15:34 | 34.77373 | -116.97765 | 34861 ft | 538 kts | 52° |
| 2026-04-26 15:35 | 34.81716 | -116.90353 | 34878 ft | 537 kts | 52° |
| 2026-04-26 15:35 | 34.86080 | -116.82891 | 34883 ft | 537 kts | 52° |
| 2026-04-26 15:36 | 34.90430 | -116.75438 | 34887 ft | 537 kts | 52° |
| 2026-04-26 15:36 | 34.95154 | -116.68394 | 34877 ft | 534 kts | 44° |
| 2026-04-26 15:37 | 35.00259 | -116.61772 | 34857 ft | 535 kts | 43° |
| 2026-04-26 15:37 | 35.05369 | -116.55147 | 34835 ft | 536 kts | 44° |
| 2026-04-26 15:38 | 35.10453 | -116.48461 | 34818 ft | 537 kts | 44° |
| 2026-04-26 15:38 | 35.15521 | -116.41743 | 34813 ft | 537 kts | 44° |
| 2026-04-26 15:39 | 35.20580 | -116.35022 | 34844 ft | 535 kts | 44° |
| 2026-04-26 15:39 | 35.24764 | -116.29460 | 34827 ft | 534 kts | 44° |
| 2026-04-26 15:40 | 35.30598 | -116.21696 | 34812 ft | 531 kts | 44° |
| 2026-04-26 15:40 | 35.35597 | -116.15030 | 34818 ft | 530 kts | 45° |
| 2026-04-26 15:41 | 35.40615 | -116.08313 | 34832 ft | 529 kts | 45° |
| 2026-04-26 15:41 | 35.45588 | -116.01651 | 34822 ft | 530 kts | 45° |
| 2026-04-26 15:42 | 35.50568 | -115.94967 | 34840 ft | 530 kts | 45° |
| 2026-04-26 15:42 | 35.55553 | -115.88263 | 34837 ft | 531 kts | 45° |
| 2026-04-26 15:43 | 35.60552 | -115.81524 | 34827 ft | 532 kts | 45° |
| 2026-04-26 15:44 | 35.68138 | -115.71212 | 34828 ft | 533 kts | 45° |
| 2026-04-26 15:44 | 35.75557 | -115.60983 | 34837 ft | 534 kts | 45° |
| 2026-04-26 15:45 | 35.83044 | -115.50654 | 34861 ft | 536 kts | 45° |
| 2026-04-26 15:46 | 35.90535 | -115.40292 | 34825 ft | 537 kts | 45° |
| 2026-04-26 15:46 | 35.93854 | -115.35689 | 34813 ft | 537 kts | 45° |
| 2026-04-26 15:47 | 36.02167 | -115.24134 | 34808 ft | 535 kts | 45° |
| 2026-04-26 15:48 | 36.06804 | -115.16915 | 34801 ft | 538 kts | 56° |
| 2026-04-26 15:48 | 36.10341 | -115.08752 | 34802 ft | 539 kts | 67° |
| 2026-04-26 15:49 | 36.12956 | -115.00045 | 34722 ft | 540 kts | 70° |
| 2026-04-26 15:49 | 36.15536 | -114.91332 | 34722 ft | 538 kts | 69° |
| 2026-04-26 15:50 | 36.18177 | -114.82671 | 34729 ft | 537 kts | 69° |
| 2026-04-26 15:50 | 36.20822 | -114.74046 | 34710 ft | 537 kts | 69° |
| 2026-04-26 15:51 | 36.23478 | -114.65393 | 34697 ft | 536 kts | 69° |
| 2026-04-26 15:51 | 36.26122 | -114.56748 | 34691 ft | 536 kts | 69° |
| 2026-04-26 15:52 | 36.28718 | -114.48221 | 34718 ft | 535 kts | 69° |
| 2026-04-26 15:52 | 36.31396 | -114.39401 | 34700 ft | 534 kts | 69° |
| 2026-04-26 15:53 | 36.34026 | -114.30709 | 34704 ft | 534 kts | 69° |
| 2026-04-26 15:53 | 36.36634 | -114.22063 | 34700 ft | 533 kts | 69° |
| 2026-04-26 15:54 | 36.39223 | -114.13453 | 34699 ft | 532 kts | 69° |
| 2026-04-26 15:54 | 36.41806 | -114.04841 | 34712 ft | 531 kts | 70° |
| 2026-04-26 15:55 | 36.44381 | -113.96227 | 34706 ft | 532 kts | 70° |
| 2026-04-26 15:55 | 36.46951 | -113.87603 | 34719 ft | 532 kts | 70° |
| 2026-04-26 15:56 | 36.49515 | -113.78972 | 34718 ft | 532 kts | 70° |
| 2026-04-26 15:56 | 36.52085 | -113.70291 | 34718 ft | 534 kts | 70° |
| 2026-04-26 15:57 | 36.54657 | -113.61584 | 34720 ft | 536 kts | 70° |
| 2026-04-26 15:57 | 36.57226 | -113.52853 | 34724 ft | 537 kts | 70° |
| 2026-04-26 15:58 | 36.59799 | -113.44083 | 34723 ft | 538 kts | 70° |
| 2026-04-26 15:58 | 36.62369 | -113.35297 | 34726 ft | 540 kts | 71° |
| 2026-04-26 15:59 | 36.64907 | -113.26559 | 34728 ft | 541 kts | 71° |
| 2026-04-26 15:59 | 36.67451 | -113.17728 | 34749 ft | 542 kts | 71° |
| 2026-04-26 16:00 | 36.70000 | -113.08859 | 34760 ft | 542 kts | 71° |
| 2026-04-26 16:00 | 36.72540 | -112.99995 | 34780 ft | 542 kts | 71° |
| 2026-04-26 16:01 | 36.75058 | -112.91184 | 34788 ft | 543 kts | 71° |
| 2026-04-26 16:01 | 36.77590 | -112.82294 | 34783 ft | 542 kts | 71° |
| 2026-04-26 16:02 | 36.80119 | -112.73386 | 34766 ft | 542 kts | 71° |
| 2026-04-26 16:02 | 36.82614 | -112.64565 | 34754 ft | 541 kts | 71° |
| 2026-04-26 16:03 | 36.85118 | -112.55686 | 34743 ft | 541 kts | 71° |
| 2026-04-26 16:03 | 36.87614 | -112.46808 | 34741 ft | 541 kts | 71° |
| 2026-04-26 16:04 | 36.90105 | -112.37934 | 34729 ft | 541 kts | 71° |
| 2026-04-26 16:04 | 36.92596 | -112.29059 | 34735 ft | 540 kts | 71° |
| 2026-04-26 16:05 | 36.95083 | -112.20177 | 34739 ft | 540 kts | 72° |
| 2026-04-26 16:05 | 36.97561 | -112.11293 | 34718 ft | 540 kts | 72° |
| 2026-04-26 16:06 | 37.00067 | -112.02280 | 34719 ft | 540 kts | 72° |
| 2026-04-26 16:06 | 37.02521 | -111.93420 | 34711 ft | 540 kts | 72° |
| 2026-04-26 16:07 | 37.04980 | -111.84517 | 34714 ft | 540 kts | 72° |
| 2026-04-26 16:07 | 37.07430 | -111.75611 | 34710 ft | 539 kts | 72° |
| 2026-04-26 16:08 | 37.09881 | -111.66675 | 34704 ft | 538 kts | 72° |
| 2026-04-26 16:08 | 37.12292 | -111.57854 | 34704 ft | 537 kts | 72° |
| 2026-04-26 16:09 | 37.14702 | -111.49008 | 34748 ft | 536 kts | 72° |
| 2026-04-26 16:09 | 37.16713 | -111.41600 | 34752 ft | 535 kts | 73° |
| 2026-04-26 16:10 | 37.19098 | -111.32793 | 34732 ft | 535 kts | 72° |
| 2026-04-26 16:10 | 37.21500 | -111.23941 | 34707 ft | 536 kts | 71° |
| 2026-04-26 16:11 | 37.24558 | -111.15403 | 34703 ft | 537 kts | 64° |
| 2026-04-26 16:11 | 37.27947 | -111.07080 | 34671 ft | 537 kts | 63° |
| 2026-04-26 16:12 | 37.31370 | -110.98621 | 34677 ft | 536 kts | 64° |
| 2026-04-26 16:12 | 37.36392 | -110.85976 | 34667 ft | 537 kts | 64° |
| 2026-04-26 16:13 | 37.39686 | -110.77617 | 34647 ft | 538 kts | 64° |
| 2026-04-26 16:13 | 37.43055 | -110.69050 | 34666 ft | 539 kts | 64° |
| 2026-04-26 16:14 | 37.46355 | -110.60644 | 34670 ft | 540 kts | 64° |
| 2026-04-26 16:15 | 37.51349 | -110.47882 | 34668 ft | 542 kts | 64° |
| 2026-04-26 16:15 | 37.54673 | -110.39357 | 34697 ft | 542 kts | 65° |
| 2026-04-26 16:16 | 37.59647 | -110.26559 | 34695 ft | 540 kts | 65° |
| 2026-04-26 16:16 | 37.62941 | -110.18054 | 34708 ft | 538 kts | 65° |
| 2026-04-26 16:17 | 37.66201 | -110.09613 | 34693 ft | 536 kts | 65° |
| 2026-04-26 16:17 | 37.69465 | -110.01140 | 34720 ft | 536 kts | 65° |
| 2026-04-26 16:18 | 37.74361 | -109.88383 | 34733 ft | 538 kts | 65° |
| 2026-04-26 16:19 | 37.79265 | -109.75555 | 34722 ft | 540 kts | 65° |
| 2026-04-26 16:20 | 37.84138 | -109.62753 | 34775 ft | 540 kts | 65° |
| 2026-04-26 16:20 | 37.89023 | -109.49869 | 34769 ft | 540 kts | 65° |
| 2026-04-26 16:21 | 37.92271 | -109.41271 | 34732 ft | 540 kts | 65° |
| 2026-04-26 16:21 | 37.95482 | -109.32747 | 34743 ft | 540 kts | 65° |
| 2026-04-26 16:22 | 37.98720 | -109.24129 | 34743 ft | 541 kts | 66° |
| 2026-04-26 16:22 | 38.01952 | -109.15497 | 34744 ft | 540 kts | 66° |
| 2026-04-26 16:23 | 38.05175 | -109.06868 | 34733 ft | 540 kts | 66° |
| 2026-04-26 16:23 | 38.08386 | -108.98248 | 34741 ft | 540 kts | 66° |
| 2026-04-26 16:24 | 38.11626 | -108.89632 | 34751 ft | 540 kts | 65° |
| 2026-04-26 16:24 | 38.14976 | -108.81146 | 34743 ft | 541 kts | 64° |
| 2026-04-26 16:25 | 38.18376 | -108.72591 | 34738 ft | 541 kts | 65° |
| 2026-04-26 16:25 | 38.21741 | -108.64032 | 34744 ft | 540 kts | 65° |
| 2026-04-26 16:26 | 38.24531 | -108.56882 | 34752 ft | 541 kts | 65° |
| 2026-04-26 16:26 | 38.28418 | -108.46888 | 34740 ft | 542 kts | 65° |
| 2026-04-26 16:27 | 38.31802 | -108.38166 | 34717 ft | 543 kts | 65° |
| 2026-04-26 16:27 | 38.35200 | -108.29388 | 34747 ft | 544 kts | 65° |
| 2026-04-26 16:28 | 38.38530 | -108.20761 | 34771 ft | 543 kts | 65° |
| 2026-04-26 16:28 | 38.41854 | -108.12122 | 34794 ft | 540 kts | 65° |
| 2026-04-26 16:29 | 38.45151 | -108.03532 | 34841 ft | 538 kts | 65° |
| 2026-04-26 16:29 | 38.48425 | -107.94941 | 34861 ft | 537 kts | 65° |
| 2026-04-26 16:30 | 38.51667 | -107.86346 | 34863 ft | 536 kts | 65° |
| 2026-04-26 16:30 | 38.54930 | -107.77669 | 34721 ft | 537 kts | 65° |
| 2026-04-26 16:31 | 38.58141 | -107.69119 | 34738 ft | 538 kts | 65° |
| 2026-04-26 16:31 | 38.61377 | -107.60482 | 34746 ft | 540 kts | 66° |
| 2026-04-26 16:32 | 38.64086 | -107.53229 | 34749 ft | 540 kts | 66° |
| 2026-04-26 16:32 | 38.67875 | -107.43125 | 34758 ft | 540 kts | 65° |
| 2026-04-26 16:33 | 38.70609 | -107.35921 | 34745 ft | 541 kts | 65° |
| 2026-04-26 16:33 | 38.74445 | -107.25801 | 34772 ft | 540 kts | 65° |
| 2026-04-26 16:34 | 38.77161 | -107.18587 | 34756 ft | 539 kts | 66° |
| 2026-04-26 16:34 | 38.80433 | -107.09868 | 34753 ft | 538 kts | 66° |
| 2026-04-26 16:35 | 38.83651 | -107.01267 | 34730 ft | 538 kts | 66° |
| 2026-04-26 16:35 | 38.86897 | -106.92571 | 34743 ft | 537 kts | 66° |
| 2026-04-26 16:36 | 38.90099 | -106.83969 | 34742 ft | 530 kts | 66° |
| 2026-04-26 16:36 | 38.91669 | -106.79741 | 34731 ft | 517 kts | 66° |
| 2026-04-26 16:36 | 38.93198 | -106.75620 | 34704 ft | 506 kts | 66° |
| 2026-04-26 16:37 | 38.94719 | -106.71513 | 34404 ft | 500 kts | 66° |
| 2026-04-26 16:37 | 38.96226 | -106.67434 | 33880 ft | 498 kts | 66° |
| 2026-04-26 16:37 | 38.97714 | -106.63398 | 33184 ft | 500 kts | 66° |
| 2026-04-26 16:37 | 38.99186 | -106.59409 | 32610 ft | 499 kts | 66° |
| 2026-04-26 16:38 | 39.00693 | -106.55317 | 32061 ft | 497 kts | 66° |
| 2026-04-26 16:38 | 39.02163 | -106.51312 | 31560 ft | 494 kts | 66° |
| 2026-04-26 16:38 | 39.03609 | -106.47363 | 31125 ft | 490 kts | 66° |
| 2026-04-26 16:38 | 39.05052 | -106.43408 | 30721 ft | 484 kts | 66° |
| 2026-04-26 16:39 | 39.06463 | -106.39537 | 30252 ft | 469 kts | 67° |
| 2026-04-26 16:39 | 39.07826 | -106.35797 | 29407 ft | 455 kts | 66° |
| 2026-04-26 16:39 | 39.09154 | -106.32151 | 28366 ft | 445 kts | 66° |
| 2026-04-26 16:39 | 39.10456 | -106.28566 | 27234 ft | 440 kts | 66° |
| 2026-04-26 16:40 | 39.11787 | -106.24895 | 26401 ft | 448 kts | 66° |
| 2026-04-26 16:40 | 39.13108 | -106.21251 | 25837 ft | 448 kts | 66° |
| 2026-04-26 16:40 | 39.14422 | -106.17625 | 25409 ft | 445 kts | 66° |
| 2026-04-26 16:40 | 39.15722 | -106.14026 | 24991 ft | 440 kts | 66° |
| 2026-04-26 16:41 | 39.17009 | -106.10456 | 24551 ft | 438 kts | 66° |
| 2026-04-26 16:41 | 39.18290 | -106.06893 | 24084 ft | 436 kts | 66° |
| 2026-04-26 16:41 | 39.19560 | -106.03357 | 23641 ft | 435 kts | 66° |
| 2026-04-26 16:41 | 39.20837 | -105.99796 | 23169 ft | 433 kts | 66° |
| 2026-04-26 16:42 | 39.22111 | -105.96238 | 22608 ft | 432 kts | 66° |
| 2026-04-26 16:42 | 39.23369 | -105.92722 | 22082 ft | 430 kts | 66° |
| 2026-04-26 16:42 | 39.24602 | -105.89284 | 21660 ft | 427 kts | 66° |
| 2026-04-26 16:42 | 39.25852 | -105.85812 | 21202 ft | 425 kts | 66° |
| 2026-04-26 16:43 | 39.27100 | -105.82355 | 20755 ft | 423 kts | 66° |
| 2026-04-26 16:43 | 39.28338 | -105.78917 | 20291 ft | 421 kts | 66° |
| 2026-04-26 16:43 | 39.29572 | -105.75486 | 19866 ft | 420 kts | 66° |
| 2026-04-26 16:43 | 39.30797 | -105.72075 | 19567 ft | 414 kts | 66° |
| 2026-04-26 16:44 | 39.31997 | -105.68727 | 19338 ft | 407 kts | 66° |
| 2026-04-26 16:44 | 39.33183 | -105.65433 | 19056 ft | 403 kts | 66° |
| 2026-04-26 16:44 | 39.34378 | -105.62156 | 18719 ft | 399 kts | 66° |
| 2026-04-26 16:44 | 39.35579 | -105.58875 | 18403 ft | 396 kts | 66° |
| 2026-04-26 16:45 | 39.36756 | -105.55657 | 17995 ft | 395 kts | 66° |
| 2026-04-26 16:45 | 39.37927 | -105.52450 | 17523 ft | 393 kts | 66° |
| 2026-04-26 16:45 | 39.39091 | -105.49257 | 17145 ft | 390 kts | 66° |
| 2026-04-26 16:45 | 39.40221 | -105.46145 | 16818 ft | 385 kts | 66° |
| 2026-04-26 16:46 | 39.41317 | -105.43039 | 16733 ft | 373 kts | 72° |
| 2026-04-26 16:46 | 39.41814 | -105.39849 | 16635 ft | 354 kts | 93° |
| 2026-04-26 16:46 | 39.41796 | -105.36662 | 16336 ft | 347 kts | 95° |
| 2026-04-26 16:46 | 39.41781 | -105.33566 | 16141 ft | 341 kts | 94° |
| 2026-04-26 16:47 | 39.41777 | -105.30500 | 15927 ft | 341 kts | 94° |
| 2026-04-26 16:47 | 39.41779 | -105.27407 | 15661 ft | 345 kts | 94° |
| 2026-04-26 16:47 | 39.41785 | -105.24302 | 15429 ft | 347 kts | 94° |
| 2026-04-26 16:47 | 39.41796 | -105.21174 | 15173 ft | 347 kts | 93° |
| 2026-04-26 16:48 | 39.41810 | -105.18062 | 14938 ft | 346 kts | 93° |
| 2026-04-26 16:48 | 39.41823 | -105.14932 | 14669 ft | 347 kts | 93° |
| 2026-04-26 16:48 | 39.41837 | -105.11820 | 14400 ft | 345 kts | 93° |
| 2026-04-26 16:48 | 39.41850 | -105.08745 | 14144 ft | 339 kts | 94° |
| 2026-04-26 16:49 | 39.41862 | -105.05704 | 13899 ft | 332 kts | 94° |
| 2026-04-26 16:49 | 39.41874 | -105.02726 | 13665 ft | 325 kts | 94° |
| 2026-04-26 16:49 | 39.41883 | -104.99865 | 13430 ft | 319 kts | 94° |
| 2026-04-26 16:49 | 39.41892 | -104.97023 | 13181 ft | 312 kts | 94° |
| 2026-04-26 16:50 | 39.41906 | -104.94247 | 12956 ft | 306 kts | 92° |
| 2026-04-26 16:50 | 39.42079 | -104.91522 | 12784 ft | 299 kts | 86° |
| 2026-04-26 16:50 | 39.42335 | -104.88896 | 12448 ft | 298 kts | 86° |
| 2026-04-26 16:50 | 39.42594 | -104.86225 | 12182 ft | 296 kts | 86° |
| 2026-04-26 16:51 | 39.42844 | -104.83600 | 11965 ft | 291 kts | 86° |
| 2026-04-26 16:51 | 39.43083 | -104.80966 | 11798 ft | 280 kts | 86° |
| 2026-04-26 16:51 | 39.43302 | -104.78520 | 11296 ft | 273 kts | 86° |
| 2026-04-26 16:51 | 39.43543 | -104.76073 | 11126 ft | 270 kts | 80° |
| 2026-04-26 16:52 | 39.44139 | -104.73753 | 10993 ft | 265 kts | 69° |
| 2026-04-26 16:52 | 39.44368 | -104.73046 | 10995 ft | 263 kts | 69° |
| 2026-04-26 16:52 | 39.45849 | -104.69597 | 10992 ft | 267 kts | 39° |
| 2026-04-26 16:52 | 39.47459 | -104.68448 | 11017 ft | 270 kts | 14° |
| 2026-04-26 16:53 | 39.49284 | -104.67828 | 11049 ft | 271 kts | 12° |
| 2026-04-26 16:53 | 39.50517 | -104.67411 | 11083 ft | 271 kts | 12° |
| 2026-04-26 16:53 | 39.52360 | -104.66779 | 11036 ft | 275 kts | 13° |
| 2026-04-26 16:53 | 39.54234 | -104.66281 | 10954 ft | 269 kts | 1° |
| 2026-04-26 16:54 | 39.56134 | -104.66245 | 10508 ft | 275 kts | 355° |
| 2026-04-26 16:54 | 39.58037 | -104.66314 | 10138 ft | 273 kts | 356° |
| 2026-04-26 16:54 | 39.59901 | -104.66325 | 9969 ft | 263 kts | 357° |
| 2026-04-26 16:54 | 39.61764 | -104.66310 | 9631 ft | 271 kts | 358° |
| 2026-04-26 16:55 | 39.63656 | -104.66286 | 9284 ft | 269 kts | 358° |
| 2026-04-26 16:55 | 39.65476 | -104.66261 | 8898 ft | 252 kts | 358° |
| 2026-04-26 16:55 | 39.67175 | -104.66240 | 8539 ft | 234 kts | 358° |
| 2026-04-26 16:55 | 39.68746 | -104.66221 | 8231 ft | 216 kts | 358° |
| 2026-04-26 16:56 | 39.71631 | -104.66189 | 7701 ft | 200 kts | 359° |
| 2026-04-26 16:56 | 39.73031 | -104.66173 | 7458 ft | 203 kts | 359° |
| 2026-04-26 16:56 | 39.74447 | -104.66155 | 7176 ft | 200 kts | 359° |
| 2026-04-26 16:57 | 39.75834 | -104.66138 | 6905 ft | 193 kts | 359° |
| 2026-04-26 16:57 | 39.77133 | -104.66123 | 6687 ft | 178 kts | 360° |
| 2026-04-26 16:57 | 39.79480 | -104.66096 | 6225 ft | 167 kts | 0° |
| 2026-04-26 16:58 | 39.80633 | -104.66081 | 5959 ft | 164 kts | 1° |
| 2026-04-26 16:58 | 39.81392 | -104.66070 | 5769 ft | 160 kts | 2° |
| 2026-04-26 16:58 | 39.83898 | -104.66041 | 5366 ft | 138 kts | 2° |
| 2026-04-26 16:59 | 39.84698 | -104.66030 | 5382 ft | 84 kts | 1° |
| 2026-04-26 16:59 | 39.85230 | -104.66112 | 5384 ft | 10 kts | 332° |
| 2026-04-26 17:00 | 39.85316 | -104.66195 | 5389 ft | 8 kts | 269° |
| 2026-04-26 17:00 | 39.85182 | -104.66241 | 5387 ft | 15 kts | 180° |
| 2026-04-26 17:00 | 39.85057 | -104.66244 | 5383 ft | 20 kts | 181° |
| 2026-04-26 17:01 | 39.84898 | -104.66244 | 5383 ft | 25 kts | 180° |
| 2026-04-26 17:01 | 39.84719 | -104.66248 | 5380 ft | 26 kts | 180° |
| 2026-04-26 17:01 | 39.84537 | -104.66250 | 5383 ft | 26 kts | 180° |
| 2026-04-26 17:01 | 39.84358 | -104.66253 | 5383 ft | 26 kts | 180° |
| 2026-04-26 17:02 | 39.84177 | -104.66255 | 5376 ft | 26 kts | 180° |
| 2026-04-26 17:02 | 39.84000 | -104.66256 | 5373 ft | 26 kts | 180° |
| 2026-04-26 17:02 | 39.83821 | -104.66258 | 5369 ft | 26 kts | 181° |
| 2026-04-26 17:02 | 39.83641 | -104.66261 | 5367 ft | 26 kts | 180° |
| 2026-04-26 17:03 | 39.83462 | -104.66263 | 5368 ft | 26 kts | 180° |
| 2026-04-26 17:03 | 39.83284 | -104.66263 | 5367 ft | 26 kts | 180° |
| 2026-04-26 17:03 | 39.83099 | -104.66266 | 5367 ft | 26 kts | 181° |
| 2026-04-26 17:03 | 39.82965 | -104.66272 | 5365 ft | 12 kts | 194° |
| 2026-04-26 17:04 | 39.82934 | -104.66365 | 5367 ft | 12 kts | 268° |
| 2026-04-26 17:04 | 39.82933 | -104.66476 | 5374 ft | 12 kts | 271° |
| 2026-04-26 17:04 | 39.82935 | -104.66584 | 5383 ft | 12 kts | 271° |
| 2026-04-26 17:04 | 39.82936 | -104.66694 | 5388 ft | 12 kts | 271° |
| 2026-04-26 17:05 | 39.82938 | -104.66802 | 5391 ft | 12 kts | 271° |
| 2026-04-26 17:05 | 39.82938 | -104.66911 | 5394 ft | 12 kts | 269° |
| 2026-04-26 17:05 | 39.82937 | -104.67021 | 5399 ft | 12 kts | 271° |
| 2026-04-26 17:05 | 39.82949 | -104.67128 | 5389 ft | 12 kts | 290° |
| 2026-04-26 17:06 | 39.82983 | -104.67232 | 5385 ft | 13 kts | 295° |
| 2026-04-26 17:06 | 39.83010 | -104.67347 | 5386 ft | 13 kts | 275° |
| 2026-04-26 17:06 | 39.83038 | -104.67412 | 5384 ft | 9 kts | 346° |
| 2026-04-26 17:06 | 39.83071 | -104.67416 | 5391 ft | 2 kts | 0° |
| 2026-04-26 17:07 | 39.83093 | -104.67416 | 5390 ft | 0 kts | 0° |